sensor_id;sensor_type;location;lat;lon;timestamp;pressure;altitude;pressure_sealevel;temperature;humidity
11114;BME280;5610;52.154;9.198;2023-05-23T00:00:42;100530.50;;;17.29;100.00
11114;BME280;5610;52.154;9.198;2023-05-23T00:03:27;100531.50;;;17.28;100.00
11114;BME280;5610;52.154;9.198;2023-05-23T00:06:18;100537.28;;;17.14;100.00
11114;BME280;5610;52.154;9.198;2023-05-23T00:09:03;100537.13;;;17.16;100.00
11114;BME280;5610;52.154;9.198;2023-05-23T00:11:49;100533.00;;;17.12;100.00
11114;BME280;5610;52.154;9.198;2023-05-23T00:14:34;100531.75;;;17.16;100.00
11114;BME280;5610;52.154;9.198;2023-05-23T00:17:20;100536.28;;;17.06;100.00
11114;BME280;5610;52.154;9.198;2023-05-23T00:20:09;100536.53;;;17.02;100.00
11114;BME280;5610;52.154;9.198;2023-05-23T00:22:55;100534.00;;;17.01;100.00
11114;BME280;5610;52.154;9.198;2023-05-23T00:25:41;100540.31;;;16.90;100.00
11114;BME280;5610;52.154;9.198;2023-05-23T00:28:31;100536.38;;;16.94;100.00
11114;BME280;5610;52.154;9.198;2023-05-23T00:31:16;100552.13;;;16.99;100.00
11114;BME280;5610;52.154;9.198;2023-05-23T00:34:02;100543.31;;;16.97;100.00
11114;BME280;5610;52.154;9.198;2023-05-23T00:36:47;100548.69;;;16.97;100.00
11114;BME280;5610;52.154;9.198;2023-05-23T00:39:33;100552.78;;;16.91;100.00
11114;BME280;5610;52.154;9.198;2023-05-23T00:42:18;100543.88;;;16.91;100.00
11114;BME280;5610;52.154;9.198;2023-05-23T00:45:04;100546.28;;;16.94;100.00
11114;BME280;5610;52.154;9.198;2023-05-23T00:47:50;100543.00;;;16.90;100.00
11114;BME280;5610;52.154;9.198;2023-05-23T00:50:36;100537.63;;;16.90;100.00
11114;BME280;5610;52.154;9.198;2023-05-23T00:53:22;100538.38;;;16.92;100.00
11114;BME280;5610;52.154;9.198;2023-05-23T00:56:08;100549.22;;;16.81;100.00
11114;BME280;5610;52.154;9.198;2023-05-23T00:58:55;100545.09;;;16.77;100.00
11114;BME280;5610;52.154;9.198;2023-05-23T01:01:40;100539.09;;;16.64;100.00
11114;BME280;5610;52.154;9.198;2023-05-23T01:04:26;100539.50;;;16.59;100.00
11114;BME280;5610;52.154;9.198;2023-05-23T01:07:13;100541.34;;;16.59;100.00
11114;BME280;5610;52.154;9.198;2023-05-23T01:09:59;100540.72;;;16.55;100.00
11114;BME280;5610;52.154;9.198;2023-05-23T01:12:52;100542.16;;;16.50;100.00
11114;BME280;5610;52.154;9.198;2023-05-23T01:15:44;100539.56;;;16.48;100.00
11114;BME280;5610;52.154;9.198;2023-05-23T01:18:37;100541.69;;;16.44;100.00
11114;BME280;5610;52.154;9.198;2023-05-23T01:21:24;100540.84;;;16.44;100.00
11114;BME280;5610;52.154;9.198;2023-05-23T01:24:35;100547.59;;;16.38;100.00
11114;BME280;5610;52.154;9.198;2023-05-23T01:30:19;100552.84;;;16.40;100.00
11114;BME280;5610;52.154;9.198;2023-05-23T01:33:07;100556.81;;;16.36;100.00
11114;BME280;5610;52.154;9.198;2023-05-23T01:35:53;100550.44;;;16.37;100.00
11114;BME280;5610;52.154;9.198;2023-05-23T01:38:41;100552.94;;;16.29;100.00
11114;BME280;5610;52.154;9.198;2023-05-23T01:41:26;100557.34;;;16.30;100.00
11114;BME280;5610;52.154;9.198;2023-05-23T01:44:11;100551.97;;;16.30;100.00
11114;BME280;5610;52.154;9.198;2023-05-23T01:46:58;100552.94;;;16.29;100.00
11114;BME280;5610;52.154;9.198;2023-05-23T01:49:46;100558.31;;;16.29;100.00
11114;BME280;5610;52.154;9.198;2023-05-23T01:52:33;100560.56;;;16.24;100.00
11114;BME280;5610;52.154;9.198;2023-05-23T01:55:19;100569.06;;;16.29;100.00
11114;BME280;5610;52.154;9.198;2023-05-23T01:58:07;100567.81;;;16.33;100.00
11114;BME280;5610;52.154;9.198;2023-05-23T02:00:52;100560.44;;;16.35;100.00
11114;BME280;5610;52.154;9.198;2023-05-23T02:03:45;100563.13;;;16.35;100.00
11114;BME280;5610;52.154;9.198;2023-05-23T02:06:31;100562.19;;;16.36;100.00
11114;BME280;5610;52.154;9.198;2023-05-23T02:09:16;100566.56;;;16.37;100.00
11114;BME280;5610;52.154;9.198;2023-05-23T02:12:02;100566.72;;;16.35;100.00
11114;BME280;5610;52.154;9.198;2023-05-23T02:14:48;100568.28;;;16.38;100.00
11114;BME280;5610;52.154;9.198;2023-05-23T02:17:35;100565.72;;;16.36;100.00
11114;BME280;5610;52.154;9.198;2023-05-23T02:20:23;100569.50;;;16.34;100.00
11114;BME280;5610;52.154;9.198;2023-05-23T02:23:10;100577.56;;;16.34;100.00
11114;BME280;5610;52.154;9.198;2023-05-23T02:25:55;100567.56;;;16.36;100.00
11114;BME280;5610;52.154;9.198;2023-05-23T02:28:40;100577.06;;;16.40;100.00
11114;BME280;5610;52.154;9.198;2023-05-23T02:31:26;100569.25;;;16.37;100.00
11114;BME280;5610;52.154;9.198;2023-05-23T02:34:12;100577.72;;;16.32;100.00
11114;BME280;5610;52.154;9.198;2023-05-23T02:36:59;100570.25;;;16.36;100.00
11114;BME280;5610;52.154;9.198;2023-05-23T02:39:44;100567.34;;;16.28;100.00
11114;BME280;5610;52.154;9.198;2023-05-23T02:42:29;100569.50;;;16.34;100.00
11114;BME280;5610;52.154;9.198;2023-05-23T02:45:14;100574.03;;;16.33;100.00
11114;BME280;5610;52.154;9.198;2023-05-23T02:48:00;100567.94;;;16.31;100.00
11114;BME280;5610;52.154;9.198;2023-05-23T02:50:45;100565.53;;;16.28;100.00
11114;BME280;5610;52.154;9.198;2023-05-23T02:53:31;100572.44;;;16.21;100.00
11114;BME280;5610;52.154;9.198;2023-05-23T02:56:17;100568.88;;;16.20;100.00
11114;BME280;5610;52.154;9.198;2023-05-23T02:59:03;100572.44;;;16.21;100.00
11114;BME280;5610;52.154;9.198;2023-05-23T03:01:48;100574.25;;;16.20;100.00
11114;BME280;5610;52.154;9.198;2023-05-23T03:04:34;100564.91;;;16.15;100.00
11114;BME280;5610;52.154;9.198;2023-05-23T03:07:20;100564.56;;;16.08;100.00
11114;BME280;5610;52.154;9.198;2023-05-23T03:10:08;100571.03;;;16.06;100.00
11114;BME280;5610;52.154;9.198;2023-05-23T03:12:53;100578.25;;;16.05;100.00
11114;BME280;5610;52.154;9.198;2023-05-23T03:15:39;100572.75;;;16.07;100.00
11114;BME280;5610;52.154;9.198;2023-05-23T03:18:24;100575.19;;;15.89;100.00
11114;BME280;5610;52.154;9.198;2023-05-23T03:21:09;100575.63;;;15.73;100.00
11114;BME280;5610;52.154;9.198;2023-05-23T03:23:54;100574.00;;;15.82;100.00
11114;BME280;5610;52.154;9.198;2023-05-23T03:26:41;100568.94;;;15.68;100.00
11114;BME280;5610;52.154;9.198;2023-05-23T03:29:26;100568.00;;;15.78;100.00
11114;BME280;5610;52.154;9.198;2023-05-23T03:32:12;100567.94;;;15.69;100.00
11114;BME280;5610;52.154;9.198;2023-05-23T03:34:57;100570.63;;;15.69;100.00
11114;BME280;5610;52.154;9.198;2023-05-23T03:37:42;100567.94;;;15.69;100.00
11114;BME280;5610;52.154;9.198;2023-05-23T03:40:28;100571.38;;;15.59;100.00
11114;BME280;5610;52.154;9.198;2023-05-23T03:43:14;100575.63;;;15.73;100.00
11114;BME280;5610;52.154;9.198;2023-05-23T03:46:00;100581.97;;;15.72;100.00
11114;BME280;5610;52.154;9.198;2023-05-23T03:48:47;100575.97;;;15.80;100.00
11114;BME280;5610;52.154;9.198;2023-05-23T03:51:33;100565.59;;;15.75;100.00
11114;BME280;5610;52.154;9.198;2023-05-23T03:54:18;100579.09;;;15.85;100.00
11114;BME280;5610;52.154;9.198;2023-05-23T03:57:04;100573.47;;;15.88;100.00
11114;BME280;5610;52.154;9.198;2023-05-23T03:59:52;100571.03;;;15.85;100.00
11114;BME280;5610;52.154;9.198;2023-05-23T04:02:38;100576.81;;;15.80;100.00
11114;BME280;5610;52.154;9.198;2023-05-23T04:05:23;100572.16;;;15.82;100.00
11114;BME280;5610;52.154;9.198;2023-05-23T04:08:09;100575.97;;;15.80;100.00
11114;BME280;5610;52.154;9.198;2023-05-23T04:10:54;100573.50;;;15.77;100.00
11114;BME280;5610;52.154;9.198;2023-05-23T04:13:41;100573.44;;;15.67;100.00
11114;BME280;5610;52.154;9.198;2023-05-23T04:16:28;100580.19;;;15.61;100.00
11114;BME280;5610;52.154;9.198;2023-05-23T04:19:16;100578.75;;;15.78;100.00
11114;BME280;5610;52.154;9.198;2023-05-23T04:22:02;100569.13;;;15.76;100.00
11114;BME280;5610;52.154;9.198;2023-05-23T04:24:47;100579.81;;;15.66;100.00
11114;BME280;5610;52.154;9.198;2023-05-23T04:27:32;100583.03;;;15.81;100.00
11114;BME280;5610;52.154;9.198;2023-05-23T04:30:18;100582.94;;;15.71;100.00
11114;BME280;5610;52.154;9.198;2023-05-23T04:33:05;100579.22;;;15.51;100.00
11114;BME280;5610;52.154;9.198;2023-05-23T04:35:50;100585.13;;;15.34;100.00
11114;BME280;5610;52.154;9.198;2023-05-23T04:38:36;100583.09;;;15.58;100.00
11114;BME280;5610;52.154;9.198;2023-05-23T04:41:24;100575.63;;;15.30;100.00
11114;BME280;5610;52.154;9.198;2023-05-23T04:44:35;100587.78;;;15.45;100.00
11114;BME280;5610;52.154;9.198;2023-05-23T04:47:38;100584.91;;;15.26;100.00
11114;BME280;5610;52.154;9.198;2023-05-23T04:50:28;100578.06;;;15.22;100.00
11114;BME280;5610;52.154;9.198;2023-05-23T04:53:16;100587.22;;;15.19;100.00
11114;BME280;5610;52.154;9.198;2023-05-23T04:56:02;100585.28;;;15.21;100.00
11114;BME280;5610;52.154;9.198;2023-05-23T04:58:48;100587.94;;;15.21;100.00
11114;BME280;5610;52.154;9.198;2023-05-23T05:01:34;100589.41;;;15.36;100.00
11114;BME280;5610;52.154;9.198;2023-05-23T05:04:22;100586.09;;;15.33;100.00
11114;BME280;5610;52.154;9.198;2023-05-23T05:07:09;100591.09;;;15.37;100.00
11114;BME280;5610;52.154;9.198;2023-05-23T05:09:55;100597.41;;;15.48;100.00
11114;BME280;5610;52.154;9.198;2023-05-23T05:12:42;100589.00;;;15.41;100.00
11114;BME280;5610;52.154;9.198;2023-05-23T05:15:27;100594.53;;;15.28;100.00
11114;BME280;5610;52.154;9.198;2023-05-23T05:18:15;100597.06;;;15.41;100.00
11114;BME280;5610;52.154;9.198;2023-05-23T05:21:00;100597.91;;;15.42;100.00
11114;BME280;5610;52.154;9.198;2023-05-23T05:23:48;100590.47;;;15.45;100.00
11114;BME280;5610;52.154;9.198;2023-05-23T05:26:35;100592.53;;;15.53;100.00
11114;BME280;5610;52.154;9.198;2023-05-23T05:29:20;100592.88;;;15.59;100.00
11114;BME280;5610;52.154;9.198;2023-05-23T05:32:05;100591.25;;;15.57;100.00
11114;BME280;5610;52.154;9.198;2023-05-23T05:34:52;100586.75;;;15.57;100.00
11114;BME280;5610;52.154;9.198;2023-05-23T05:37:37;100592.72;;;15.72;100.00
11114;BME280;5610;52.154;9.198;2023-05-23T05:40:24;100600.84;;;15.82;100.00
11114;BME280;5610;52.154;9.198;2023-05-23T05:43:09;100596.47;;;15.81;100.00
11114;BME280;5610;52.154;9.198;2023-05-23T05:45:54;100600.72;;;15.83;100.00
11114;BME280;5610;52.154;9.198;2023-05-23T05:48:40;100601.16;;;15.68;100.00
11114;BME280;5610;52.154;9.198;2023-05-23T05:51:28;100598.75;;;15.85;100.00
11114;BME280;5610;52.154;9.198;2023-05-23T05:54:14;100602.88;;;15.69;100.00
11114;BME280;5610;52.154;9.198;2023-05-23T05:57:00;100601.22;;;15.77;100.00
11114;BME280;5610;52.154;9.198;2023-05-23T05:59:45;100607.94;;;15.83;100.00
11114;BME280;5610;52.154;9.198;2023-05-23T06:02:30;100606.56;;;15.88;100.00
11114;BME280;5610;52.154;9.198;2023-05-23T06:05:16;100605.84;;;15.86;100.00
11114;BME280;5610;52.154;9.198;2023-05-23T06:08:02;100608.00;;;15.60;100.00
11114;BME280;5610;52.154;9.198;2023-05-23T06:10:47;100610.19;;;15.67;100.00
11114;BME280;5610;52.154;9.198;2023-05-23T06:13:34;100618.09;;;15.79;100.00
11114;BME280;5610;52.154;9.198;2023-05-23T06:16:19;100616.97;;;15.82;100.00
11114;BME280;5610;52.154;9.198;2023-05-23T06:19:05;100616.13;;;15.81;100.00
11114;BME280;5610;52.154;9.198;2023-05-23T06:21:51;100617.97;;;15.81;100.00
11114;BME280;5610;52.154;9.198;2023-05-23T06:24:37;100622.09;;;15.85;100.00
11114;BME280;5610;52.154;9.198;2023-05-23T06:27:22;100615.47;;;15.89;100.00
11114;BME280;5610;52.154;9.198;2023-05-23T06:30:10;100620.84;;;15.89;100.00
11114;BME280;5610;52.154;9.198;2023-05-23T06:32:55;100630.72;;;15.68;100.00
11114;BME280;5610;52.154;9.198;2023-05-23T06:35:42;100630.78;;;15.77;100.00
11114;BME280;5610;52.154;9.198;2023-05-23T06:38:28;100637.66;;;15.59;100.00
11114;BME280;5610;52.154;9.198;2023-05-23T06:41:17;100636.69;;;15.60;100.00
11114;BME280;5610;52.154;9.198;2023-05-23T06:44:02;100648.66;;;15.56;100.00
11114;BME280;5610;52.154;9.198;2023-05-23T06:46:50;100641.00;;;15.51;100.00
11114;BME280;5610;52.154;9.198;2023-05-23T06:49:40;100659.03;;;15.49;100.00
11114;BME280;5610;52.154;9.198;2023-05-23T06:52:26;100659.44;;;15.45;100.00
11114;BME280;5610;52.154;9.198;2023-05-23T06:55:11;100661.00;;;15.58;100.00
11114;BME280;5610;52.154;9.198;2023-05-23T06:58:02;100669.69;;;15.51;100.00
11114;BME280;5610;52.154;9.198;2023-05-23T07:00:48;100669.06;;;15.47;100.00
11114;BME280;5610;52.154;9.198;2023-05-23T07:03:46;100671.25;;;15.42;100.00
11114;BME280;5610;52.154;9.198;2023-05-23T07:06:31;100677.38;;;15.44;100.00
11114;BME280;5610;52.154;9.198;2023-05-23T07:09:18;100675.78;;;15.53;100.00
11114;BME280;5610;52.154;9.198;2023-05-23T07:12:04;100678.81;;;15.59;100.00
11114;BME280;5610;52.154;9.198;2023-05-23T07:14:52;100682.97;;;15.52;100.00
11114;BME280;5610;52.154;9.198;2023-05-23T07:17:38;100691.03;;;15.63;100.00
11114;BME280;5610;52.154;9.198;2023-05-23T07:20:24;100694.06;;;15.70;100.00
11114;BME280;5610;52.154;9.198;2023-05-23T07:23:16;100695.06;;;15.58;100.00
11114;BME280;5610;52.154;9.198;2023-05-23T07:26:02;100698.22;;;15.63;100.00
11114;BME280;5610;52.154;9.198;2023-05-23T07:28:57;100701.53;;;15.67;100.00
11114;BME280;5610;52.154;9.198;2023-05-23T07:31:43;100702.59;;;15.75;100.00
11114;BME280;5610;52.154;9.198;2023-05-23T07:34:30;100709.19;;;15.82;100.00
11114;BME280;5610;52.154;9.198;2023-05-23T07:37:19;100705.22;;;15.65;100.00
11114;BME280;5610;52.154;9.198;2023-05-23T07:40:06;100706.78;;;15.46;100.00
11114;BME280;5610;52.154;9.198;2023-05-23T07:42:52;100713.22;;;15.54;100.00
11114;BME280;5610;52.154;9.198;2023-05-23T07:45:38;100718.38;;;15.46;100.00
11114;BME280;5610;52.154;9.198;2023-05-23T07:48:23;100719.97;;;15.15;100.00
11114;BME280;5610;52.154;9.198;2023-05-23T07:51:10;100719.38;;;15.23;100.00
11114;BME280;5610;52.154;9.198;2023-05-23T07:53:57;100737.06;;;15.25;100.00
11114;BME280;5610;52.154;9.198;2023-05-23T07:56:42;100731.22;;;15.31;100.00
11114;BME280;5610;52.154;9.198;2023-05-23T07:59:27;100743.03;;;15.40;100.00
11114;BME280;5610;52.154;9.198;2023-05-23T08:02:13;100744.59;;;15.43;100.00
11114;BME280;5610;52.154;9.198;2023-05-23T08:04:59;100740.84;;;15.34;100.00
11114;BME280;5610;52.154;9.198;2023-05-23T08:07:44;100750.25;;;15.17;100.00
11114;BME280;5610;52.154;9.198;2023-05-23T08:10:31;100749.84;;;14.88;100.00
11114;BME280;5610;52.154;9.198;2023-05-23T08:13:23;100756.91;;;14.89;100.00
11114;BME280;5610;52.154;9.198;2023-05-23T08:16:29;100766.53;;;14.80;100.00
11114;BME280;5610;52.154;9.198;2023-05-23T08:19:15;100762.25;;;14.67;100.00
11114;BME280;5610;52.154;9.198;2023-05-23T08:22:01;100764.91;;;14.67;100.00
11114;BME280;5610;52.154;9.198;2023-05-23T08:24:47;100778.53;;;14.52;100.00
11114;BME280;5610;52.154;9.198;2023-05-23T08:27:34;100776.94;;;14.37;100.00
11114;BME280;5610;52.154;9.198;2023-05-23T08:30:27;100783.97;;;14.51;100.00
11114;BME280;5610;52.154;9.198;2023-05-23T08:33:13;100800.91;;;14.51;100.00
11114;BME280;5610;52.154;9.198;2023-05-23T08:36:01;100798.09;;;14.29;100.00
11114;BME280;5610;52.154;9.198;2023-05-23T08:38:48;100790.53;;;14.23;100.00
11114;BME280;5610;52.154;9.198;2023-05-23T08:41:41;100800.84;;;14.16;100.00
11114;BME280;5610;52.154;9.198;2023-05-23T08:44:30;100804.28;;;14.18;100.00
11114;BME280;5610;52.154;9.198;2023-05-23T08:47:18;100813.00;;;14.33;100.00
11114;BME280;5610;52.154;9.198;2023-05-23T08:50:12;100815.56;;;14.35;100.00
11114;BME280;5610;52.154;9.198;2023-05-23T08:52:59;100821.78;;;14.35;100.00
11114;BME280;5610;52.154;9.198;2023-05-23T08:55:46;100827.47;;;14.30;100.00
11114;BME280;5610;52.154;9.198;2023-05-23T08:58:34;100826.75;;;14.28;100.00
11114;BME280;5610;52.154;9.198;2023-05-23T09:01:23;100838.47;;;14.51;100.00
11114;BME280;5610;52.154;9.198;2023-05-23T09:04:14;100846.56;;;14.63;100.00
11114;BME280;5610;52.154;9.198;2023-05-23T09:07:11;100844.88;;;14.62;100.00
11114;BME280;5610;52.154;9.198;2023-05-23T09:09:57;100842.78;;;14.41;100.00
11114;BME280;5610;52.154;9.198;2023-05-23T09:12:42;100870.63;;;14.51;100.00
11114;BME280;5610;52.154;9.198;2023-05-23T09:15:29;100859.19;;;14.49;100.00
11114;BME280;5610;52.154;9.198;2023-05-23T09:18:17;100865.06;;;14.42;100.00
11114;BME280;5610;52.154;9.198;2023-05-23T09:21:03;100874.69;;;14.57;100.00
11114;BME280;5610;52.154;9.198;2023-05-23T09:23:51;100871.22;;;14.68;100.00
11114;BME280;5610;52.154;9.198;2023-05-23T09:26:36;100875.09;;;14.64;100.00
11114;BME280;5610;52.154;9.198;2023-05-23T09:29:21;100878.00;;;14.84;100.00
11114;BME280;5610;52.154;9.198;2023-05-23T09:32:10;100878.16;;;14.94;100.00
11114;BME280;5610;52.154;9.198;2023-05-23T09:34:59;100889.97;;;14.92;100.00
11114;BME280;5610;52.154;9.198;2023-05-23T09:37:45;100885.13;;;14.97;100.00
11114;BME280;5610;52.154;9.198;2023-05-23T09:40:31;100894.22;;;14.83;100.00
11114;BME280;5610;52.154;9.198;2023-05-23T09:43:20;100907.53;;;14.61;100.00
11114;BME280;5610;52.154;9.198;2023-05-23T09:46:09;100908.06;;;14.77;100.00
11114;BME280;5610;52.154;9.198;2023-05-23T09:48:55;100909.63;;;14.68;100.00
11114;BME280;5610;52.154;9.198;2023-05-23T09:51:42;100914.19;;;14.79;100.00
11114;BME280;5610;52.154;9.198;2023-05-23T09:54:27;100915.66;;;14.83;100.00
11114;BME280;5610;52.154;9.198;2023-05-23T09:57:14;100922.34;;;14.77;100.00
11114;BME280;5610;52.154;9.198;2023-05-23T10:00:00;100925.66;;;14.81;100.00
11114;BME280;5610;52.154;9.198;2023-05-23T10:03:06;100924.41;;;14.74;100.00
11114;BME280;5610;52.154;9.198;2023-05-23T10:05:56;100942.09;;;14.40;100.00
11114;BME280;5610;52.154;9.198;2023-05-23T10:08:52;100945.22;;;14.46;100.00
11114;BME280;5610;52.154;9.198;2023-05-23T10:15:30;100946.59;;;14.39;100.00
11114;BME280;5610;52.154;9.198;2023-05-23T10:18:20;100962.03;;;14.36;100.00
11114;BME280;5610;52.154;9.198;2023-05-23T10:21:11;100955.63;;;14.38;100.00
11114;BME280;5610;52.154;9.198;2023-05-23T10:24:03;100950.25;;;14.38;100.00
11114;BME280;5610;52.154;9.198;2023-05-23T10:26:48;100959.34;;;14.48;100.00
11114;BME280;5610;52.154;9.198;2023-05-23T10:29:34;100953.75;;;14.51;100.00
11114;BME280;5610;52.154;9.198;2023-05-23T10:32:20;100962.03;;;14.48;100.00
11114;BME280;5610;52.154;9.198;2023-05-23T10:35:11;100958.78;;;14.56;100.00
11114;BME280;5610;52.154;9.198;2023-05-23T10:38:03;100962.88;;;14.62;100.00
11114;BME280;5610;52.154;9.198;2023-05-23T10:40:57;100968.91;;;14.52;100.00
11114;BME280;5610;52.154;9.198;2023-05-23T10:43:54;100958.03;;;14.67;100.00
11114;BME280;5610;52.154;9.198;2023-05-23T10:46:52;100968.34;;;14.60;100.00
11114;BME280;5610;52.154;9.198;2023-05-23T10:49:39;100968.44;;;14.59;100.00
11114;BME280;5610;52.154;9.198;2023-05-23T10:52:24;100974.47;;;14.37;100.00
11114;BME280;5610;52.154;9.198;2023-05-23T10:55:14;100975.84;;;14.42;100.00
11114;BME280;5610;52.154;9.198;2023-05-23T10:58:14;100983.59;;;14.47;100.00
11114;BME280;5610;52.154;9.198;2023-05-23T11:01:01;100977.81;;;15.01;100.00
11114;BME280;5610;52.154;9.198;2023-05-23T11:03:52;100966.88;;;15.85;100.00
11114;BME280;5610;52.154;9.198;2023-05-23T11:06:38;100968.25;;;16.02;100.00
11114;BME280;5610;52.154;9.198;2023-05-23T11:09:25;100984.34;;;15.80;100.00
11114;BME280;5610;52.154;9.198;2023-05-23T11:12:10;100977.28;;;15.55;100.00
11114;BME280;5610;52.154;9.198;2023-05-23T11:14:57;100988.03;;;15.20;100.00
11114;BME280;5610;52.154;9.198;2023-05-23T11:17:49;100990.22;;;14.91;100.00
11114;BME280;5610;52.154;9.198;2023-05-23T11:20:36;100997.88;;;14.84;100.00
11114;BME280;5610;52.154;9.198;2023-05-23T11:23:23;100997.53;;;14.89;100.00
11114;BME280;5610;52.154;9.198;2023-05-23T11:26:29;101011.59;;;14.79;100.00
11114;BME280;5610;52.154;9.198;2023-05-23T11:29:15;101013.50;;;14.41;100.00
11114;BME280;5610;52.154;9.198;2023-05-23T11:32:09;101009.88;;;14.54;100.00
11114;BME280;5610;52.154;9.198;2023-05-23T11:34:54;101015.63;;;14.98;100.00
11114;BME280;5610;52.154;9.198;2023-05-23T11:37:40;101012.19;;;15.20;100.00
11114;BME280;5610;52.154;9.198;2023-05-23T11:40:29;101013.91;;;15.56;100.00
11114;BME280;5610;52.154;9.198;2023-05-23T11:43:16;101014.78;;;15.56;100.00
11114;BME280;5610;52.154;9.198;2023-05-23T11:46:07;101020.50;;;15.76;100.00
11114;BME280;5610;52.154;9.198;2023-05-23T11:48:53;101017.53;;;15.68;100.00
11114;BME280;5610;52.154;9.198;2023-05-23T11:51:39;101027.97;;;16.06;100.00
11114;BME280;5610;52.154;9.198;2023-05-23T11:54:25;101023.22;;;16.65;100.00
11114;BME280;5610;52.154;9.198;2023-05-23T11:57:12;101015.75;;;18.18;100.00
11114;BME280;5610;52.154;9.198;2023-05-23T11:59:57;101016.97;;;19.73;100.00
11114;BME280;5610;52.154;9.198;2023-05-23T12:02:44;101009.22;;;22.15;100.00
11114;BME280;5610;52.154;9.198;2023-05-23T12:05:31;100996.88;;;24.03;74.19
11114;BME280;5610;52.154;9.198;2023-05-23T12:08:17;101012.38;;;23.21;75.25
11114;BME280;5610;52.154;9.198;2023-05-23T12:11:02;101015.22;;;22.01;88.30
11114;BME280;5610;52.154;9.198;2023-05-23T12:13:48;101017.00;;;20.85;95.50
11114;BME280;5610;52.154;9.198;2023-05-23T12:16:33;101024.78;;;19.57;100.00
11114;BME280;5610;52.154;9.198;2023-05-23T12:19:19;101027.22;;;18.72;100.00
11114;BME280;5610;52.154;9.198;2023-05-23T12:22:06;101025.94;;;17.84;100.00
11114;BME280;5610;52.154;9.198;2023-05-23T12:24:52;101035.34;;;17.25;100.00
11114;BME280;5610;52.154;9.198;2023-05-23T12:27:40;101039.00;;;16.92;100.00
11114;BME280;5610;52.154;9.198;2023-05-23T12:30:27;101038.06;;;16.71;100.00
11114;BME280;5610;52.154;9.198;2023-05-23T12:33:12;101034.03;;;16.43;100.00
11114;BME280;5610;52.154;9.198;2023-05-23T12:35:57;101047.47;;;16.43;100.00
11114;BME280;5610;52.154;9.198;2023-05-23T12:38:44;101049.50;;;16.95;100.00
11114;BME280;5610;52.154;9.198;2023-05-23T12:41:29;101055.81;;;17.28;100.00
11114;BME280;5610;52.154;9.198;2023-05-23T12:44:16;101058.38;;;17.18;100.00
11114;BME280;5610;52.154;9.198;2023-05-23T12:47:01;101051.00;;;17.32;100.00
11114;BME280;5610;52.154;9.198;2023-05-23T12:49:47;101054.72;;;17.19;100.00
11114;BME280;5610;52.154;9.198;2023-05-23T12:52:32;101065.47;;;17.19;100.00
11114;BME280;5610;52.154;9.198;2023-05-23T12:55:20;101072.41;;;17.33;100.00
11114;BME280;5610;52.154;9.198;2023-05-23T12:58:05;101068.69;;;17.56;100.00
11114;BME280;5610;52.154;9.198;2023-05-23T13:00:50;101071.53;;;17.76;100.00
11114;BME280;5610;52.154;9.198;2023-05-23T13:03:36;101073.06;;;18.10;100.00
11114;BME280;5610;52.154;9.198;2023-05-23T13:06:21;101080.19;;;19.03;100.00
11114;BME280;5610;52.154;9.198;2023-05-23T13:09:06;101071.84;;;23.32;75.74
11114;BME280;5610;52.154;9.198;2023-05-23T13:11:53;101065.44;;;25.80;57.28
11114;BME280;5610;52.154;9.198;2023-05-23T13:14:39;101066.16;;;28.22;49.43
11114;BME280;5610;52.154;9.198;2023-05-23T13:17:24;101063.72;;;28.68;48.00
11114;BME280;5610;52.154;9.198;2023-05-23T13:20:09;101066.50;;;28.33;47.40
11114;BME280;5610;52.154;9.198;2023-05-23T13:22:56;101064.81;;;26.07;51.00
11114;BME280;5610;52.154;9.198;2023-05-23T13:25:42;101059.66;;;24.26;55.37
11114;BME280;5610;52.154;9.198;2023-05-23T13:28:28;101054.25;;;25.12;54.51
11114;BME280;5610;52.154;9.198;2023-05-23T13:31:13;101064.91;;;25.53;53.47
11114;BME280;5610;52.154;9.198;2023-05-23T13:33:59;101056.19;;;26.77;49.59
11114;BME280;5610;52.154;9.198;2023-05-23T13:36:44;101063.22;;;26.50;48.27
11114;BME280;5610;52.154;9.198;2023-05-23T13:39:29;101070.47;;;25.06;50.94
11114;BME280;5610;52.154;9.198;2023-05-23T13:42:15;101081.59;;;23.59;52.76
11114;BME280;5610;52.154;9.198;2023-05-23T13:45:01;101074.06;;;22.00;59.24
11114;BME280;5610;52.154;9.198;2023-05-23T13:47:47;101071.41;;;20.92;61.85
11114;BME280;5610;52.154;9.198;2023-05-23T13:50:32;101062.31;;;26.35;52.71
11114;BME280;5610;52.154;9.198;2023-05-23T13:53:18;101068.84;;;28.36;48.83
11114;BME280;5610;52.154;9.198;2023-05-23T13:56:04;101065.41;;;29.91;42.92
11114;BME280;5610;52.154;9.198;2023-05-23T13:58:50;101066.78;;;28.45;43.06
11114;BME280;5610;52.154;9.198;2023-05-23T14:01:36;101072.66;;;26.25;46.74
11114;BME280;5610;52.154;9.198;2023-05-23T14:04:21;101074.22;;;28.02;44.70
11114;BME280;5610;52.154;9.198;2023-05-23T14:07:07;101076.06;;;28.23;43.82
11114;BME280;5610;52.154;9.198;2023-05-23T14:09:52;101076.88;;;26.80;45.53
11114;BME280;5610;52.154;9.198;2023-05-23T14:12:37;101079.00;;;25.88;46.64
11114;BME280;5610;52.154;9.198;2023-05-23T14:15:22;101081.22;;;25.07;46.80
11114;BME280;5610;52.154;9.198;2023-05-23T14:18:09;101077.50;;;24.53;49.46
11114;BME280;5610;52.154;9.198;2023-05-23T14:20:54;101093.84;;;24.28;48.66
11114;BME280;5610;52.154;9.198;2023-05-23T14:23:39;101093.19;;;24.02;50.38
11114;BME280;5610;52.154;9.198;2023-05-23T14:26:24;101084.50;;;23.82;52.02
11114;BME280;5610;52.154;9.198;2023-05-23T14:29:10;101085.88;;;23.86;52.89
11114;BME280;5610;52.154;9.198;2023-05-23T14:31:55;101078.56;;;23.78;53.07
11114;BME280;5610;52.154;9.198;2023-05-23T14:34:44;101088.94;;;24.07;51.63
11114;BME280;5610;52.154;9.198;2023-05-23T14:37:29;101081.44;;;24.01;51.44
11114;BME280;5610;52.154;9.198;2023-05-23T14:40:14;101083.75;;;23.39;52.15